Berlien, Indiana
Current Conditions -  °F | °C
As of 10:15 AM on Wednesday 26 Nov 2014 (Local Time) from KANQ Reporting Station
Overcast Overcast  
Wind Chill: 17°   Ceiling: 1700
Heat Index: 25°   Visibility: 10mi
Dew Point: 19°   Wind: 7mph
Humidity: 80%   Direction: 110°ESE
Pressure: 30.15"   Gusts: NA
Location:  41.6594°N, 85.0055°W
Report Text: KANQ 261515Z AUTO 11006KT 10SM OVC017 M04/M07 A3015 RMK
Loading
Personal Weather Stations






























Interactive Weather Map New forecast layout! Learn more

10-Day Weather Forecast

Advertisements
Track Severe Weather on mobile